sensor_id;sensor_type;location;lat;lon;timestamp;P1;durP1;ratioP1;P2;durP2;ratioP2
21175;SDS011;10746;50.178;8.186;2022-11-25T00:01:14;8.83;;;1.80;;
21175;SDS011;10746;50.178;8.186;2022-11-25T00:03:43;6.60;;;2.20;;
21175;SDS011;10746;50.178;8.186;2022-11-25T00:06:11;6.30;;;1.77;;
21175;SDS011;10746;50.178;8.186;2022-11-25T00:08:39;9.37;;;2.20;;
21175;SDS011;10746;50.178;8.186;2022-11-25T00:11:08;8.53;;;2.17;;
21175;SDS011;10746;50.178;8.186;2022-11-25T00:13:36;9.07;;;2.10;;
21175;SDS011;10746;50.178;8.186;2022-11-25T00:16:04;8.33;;;2.17;;
21175;SDS011;10746;50.178;8.186;2022-11-25T00:18:34;7.83;;;2.00;;
21175;SDS011;10746;50.178;8.186;2022-11-25T00:21:04;8.17;;;2.13;;
21175;SDS011;10746;50.178;8.186;2022-11-25T00:23:32;10.17;;;2.60;;
21175;SDS011;10746;50.178;8.186;2022-11-25T00:26:04;9.17;;;1.90;;
21175;SDS011;10746;50.178;8.186;2022-11-25T00:28:33;11.73;;;2.50;;
21175;SDS011;10746;50.178;8.186;2022-11-25T00:31:03;8.73;;;2.20;;
21175;SDS011;10746;50.178;8.186;2022-11-25T00:33:31;10.73;;;2.23;;
21175;SDS011;10746;50.178;8.186;2022-11-25T00:35:59;10.80;;;2.10;;
21175;SDS011;10746;50.178;8.186;2022-11-25T00:38:26;7.07;;;2.23;;
21175;SDS011;10746;50.178;8.186;2022-11-25T00:40:53;7.00;;;2.20;;
21175;SDS011;10746;50.178;8.186;2022-11-25T00:43:42;10.23;;;1.83;;
21175;SDS011;10746;50.178;8.186;2022-11-25T00:46:26;7.70;;;1.90;;
21175;SDS011;10746;50.178;8.186;2022-11-25T00:48:52;9.93;;;1.90;;
21175;SDS011;10746;50.178;8.186;2022-11-25T00:51:19;5.67;;;1.80;;
21175;SDS011;10746;50.178;8.186;2022-11-25T00:53:46;8.47;;;2.20;;
21175;SDS011;10746;50.178;8.186;2022-11-25T00:56:13;10.83;;;2.10;;
21175;SDS011;10746;50.178;8.186;2022-11-25T00:58:39;5.70;;;1.83;;
21175;SDS011;10746;50.178;8.186;2022-11-25T01:01:08;9.33;;;2.10;;
21175;SDS011;10746;50.178;8.186;2022-11-25T01:03:36;5.93;;;1.90;;
21175;SDS011;10746;50.178;8.186;2022-11-25T01:06:04;4.93;;;2.00;;
21175;SDS011;10746;50.178;8.186;2022-11-25T01:08:33;5.17;;;1.93;;
21175;SDS011;10746;50.178;8.186;2022-11-25T01:11:00;2.17;;;1.60;;
21175;SDS011;10746;50.178;8.186;2022-11-25T01:13:29;6.40;;;1.80;;
21175;SDS011;10746;50.178;8.186;2022-11-25T01:16:00;8.27;;;2.10;;
21175;SDS011;10746;50.178;8.186;2022-11-25T01:18:28;4.93;;;1.73;;
21175;SDS011;10746;50.178;8.186;2022-11-25T01:21:03;10.13;;;2.20;;
21175;SDS011;10746;50.178;8.186;2022-11-25T01:23:31;10.37;;;2.30;;
21175;SDS011;10746;50.178;8.186;2022-11-25T01:25:59;6.97;;;2.23;;
21175;SDS011;10746;50.178;8.186;2022-11-25T01:28:27;7.93;;;2.50;;
21175;SDS011;10746;50.178;8.186;2022-11-25T01:30:57;8.23;;;2.10;;
21175;SDS011;10746;50.178;8.186;2022-11-25T01:33:27;6.37;;;2.20;;
21175;SDS011;10746;50.178;8.186;2022-11-25T01:35:56;6.47;;;2.10;;
21175;SDS011;10746;50.178;8.186;2022-11-25T01:38:25;10.33;;;2.27;;
21175;SDS011;10746;50.178;8.186;2022-11-25T01:40:52;6.77;;;2.10;;
21175;SDS011;10746;50.178;8.186;2022-11-25T01:43:19;7.20;;;1.97;;
21175;SDS011;10746;50.178;8.186;2022-11-25T01:45:45;5.30;;;1.93;;
21175;SDS011;10746;50.178;8.186;2022-11-25T01:48:15;11.07;;;2.43;;
21175;SDS011;10746;50.178;8.186;2022-11-25T01:50:46;10.63;;;2.23;;
21175;SDS011;10746;50.178;8.186;2022-11-25T01:53:15;10.10;;;2.10;;
21175;SDS011;10746;50.178;8.186;2022-11-25T01:55:46;7.30;;;2.00;;
21175;SDS011;10746;50.178;8.186;2022-11-25T01:58:19;8.37;;;2.13;;
21175;SDS011;10746;50.178;8.186;2022-11-25T02:00:50;6.50;;;1.80;;
21175;SDS011;10746;50.178;8.186;2022-11-25T02:03:20;7.00;;;1.90;;
21175;SDS011;10746;50.178;8.186;2022-11-25T02:05:49;7.27;;;2.10;;
21175;SDS011;10746;50.178;8.186;2022-11-25T02:08:22;2.67;;;1.63;;
21175;SDS011;10746;50.178;8.186;2022-11-25T02:10:50;7.97;;;2.10;;
21175;SDS011;10746;50.178;8.186;2022-11-25T02:13:19;6.90;;;1.73;;
21175;SDS011;10746;50.178;8.186;2022-11-25T02:15:47;8.27;;;2.07;;
21175;SDS011;10746;50.178;8.186;2022-11-25T02:18:14;4.33;;;1.80;;
21175;SDS011;10746;50.178;8.186;2022-11-25T02:20:42;10.10;;;2.00;;
21175;SDS011;10746;50.178;8.186;2022-11-25T02:23:11;5.37;;;1.63;;
21175;SDS011;10746;50.178;8.186;2022-11-25T02:25:47;6.77;;;1.80;;
21175;SDS011;10746;50.178;8.186;2022-11-25T02:28:15;5.23;;;1.60;;
21175;SDS011;10746;50.178;8.186;2022-11-25T02:30:43;6.47;;;1.83;;
21175;SDS011;10746;50.178;8.186;2022-11-25T02:33:11;8.37;;;2.17;;
21175;SDS011;10746;50.178;8.186;2022-11-25T02:35:39;8.80;;;2.10;;
21175;SDS011;10746;50.178;8.186;2022-11-25T02:38:08;6.13;;;1.60;;
21175;SDS011;10746;50.178;8.186;2022-11-25T02:40:39;10.70;;;1.80;;
21175;SDS011;10746;50.178;8.186;2022-11-25T02:43:12;8.87;;;1.80;;
21175;SDS011;10746;50.178;8.186;2022-11-25T02:45:42;8.07;;;1.87;;
21175;SDS011;10746;50.178;8.186;2022-11-25T02:48:14;5.40;;;1.73;;
21175;SDS011;10746;50.178;8.186;2022-11-25T02:50:41;7.03;;;1.60;;
21175;SDS011;10746;50.178;8.186;2022-11-25T02:53:08;8.10;;;2.00;;
21175;SDS011;10746;50.178;8.186;2022-11-25T02:55:34;7.33;;;1.60;;
21175;SDS011;10746;50.178;8.186;2022-11-25T02:58:01;4.57;;;1.67;;
21175;SDS011;10746;50.178;8.186;2022-11-25T03:00:29;10.17;;;1.67;;
21175;SDS011;10746;50.178;8.186;2022-11-25T03:02:56;5.73;;;1.70;;
21175;SDS011;10746;50.178;8.186;2022-11-25T03:05:23;6.23;;;2.03;;
21175;SDS011;10746;50.178;8.186;2022-11-25T03:07:50;6.17;;;1.90;;
21175;SDS011;10746;50.178;8.186;2022-11-25T03:10:17;5.50;;;1.40;;
21175;SDS011;10746;50.178;8.186;2022-11-25T03:12:44;5.33;;;1.57;;
21175;SDS011;10746;50.178;8.186;2022-11-25T03:15:11;5.73;;;1.70;;
21175;SDS011;10746;50.178;8.186;2022-11-25T03:17:39;4.07;;;1.70;;
21175;SDS011;10746;50.178;8.186;2022-11-25T03:20:06;2.80;;;1.90;;
21175;SDS011;10746;50.178;8.186;2022-11-25T03:22:34;6.83;;;2.00;;
21175;SDS011;10746;50.178;8.186;2022-11-25T03:25:00;7.10;;;2.47;;
21175;SDS011;10746;50.178;8.186;2022-11-25T03:27:27;9.23;;;2.77;;
21175;SDS011;10746;50.178;8.186;2022-11-25T03:29:54;8.57;;;2.80;;
21175;SDS011;10746;50.178;8.186;2022-11-25T03:32:20;8.00;;;2.47;;
21175;SDS011;10746;50.178;8.186;2022-11-25T03:34:49;6.10;;;2.77;;
21175;SDS011;10746;50.178;8.186;2022-11-25T03:37:15;4.33;;;2.57;;
21175;SDS011;10746;50.178;8.186;2022-11-25T03:39:43;7.17;;;2.70;;
21175;SDS011;10746;50.178;8.186;2022-11-25T03:42:10;7.63;;;2.57;;
21175;SDS011;10746;50.178;8.186;2022-11-25T03:44:36;8.47;;;2.60;;
21175;SDS011;10746;50.178;8.186;2022-11-25T03:47:03;6.37;;;2.67;;
21175;SDS011;10746;50.178;8.186;2022-11-25T03:49:30;6.07;;;2.47;;
21175;SDS011;10746;50.178;8.186;2022-11-25T03:51:58;10.07;;;3.77;;
21175;SDS011;10746;50.178;8.186;2022-11-25T03:54:25;13.37;;;4.30;;
21175;SDS011;10746;50.178;8.186;2022-11-25T03:56:52;8.27;;;4.20;;
21175;SDS011;10746;50.178;8.186;2022-11-25T03:59:18;9.00;;;4.23;;
21175;SDS011;10746;50.178;8.186;2022-11-25T04:01:45;5.63;;;3.60;;
21175;SDS011;10746;50.178;8.186;2022-11-25T04:04:12;8.50;;;3.63;;
21175;SDS011;10746;50.178;8.186;2022-11-25T04:06:39;10.47;;;5.47;;
21175;SDS011;10746;50.178;8.186;2022-11-25T04:09:07;8.03;;;4.57;;
21175;SDS011;10746;50.178;8.186;2022-11-25T04:11:35;8.10;;;4.53;;
21175;SDS011;10746;50.178;8.186;2022-11-25T04:14:20;8.67;;;4.87;;
21175;SDS011;10746;50.178;8.186;2022-11-25T04:16:47;9.37;;;4.90;;
21175;SDS011;10746;50.178;8.186;2022-11-25T04:19:14;11.70;;;5.07;;
21175;SDS011;10746;50.178;8.186;2022-11-25T04:21:40;14.60;;;6.30;;
21175;SDS011;10746;50.178;8.186;2022-11-25T04:24:08;10.10;;;5.17;;
21175;SDS011;10746;50.178;8.186;2022-11-25T04:26:35;7.67;;;5.10;;
21175;SDS011;10746;50.178;8.186;2022-11-25T04:29:02;10.53;;;4.83;;
21175;SDS011;10746;50.178;8.186;2022-11-25T04:31:29;8.77;;;4.93;;
21175;SDS011;10746;50.178;8.186;2022-11-25T04:33:56;8.00;;;5.17;;
21175;SDS011;10746;50.178;8.186;2022-11-25T04:36:23;7.83;;;5.20;;
21175;SDS011;10746;50.178;8.186;2022-11-25T04:38:50;10.43;;;5.80;;
21175;SDS011;10746;50.178;8.186;2022-11-25T04:41:18;9.07;;;5.00;;
21175;SDS011;10746;50.178;8.186;2022-11-25T04:43:44;8.03;;;5.40;;
21175;SDS011;10746;50.178;8.186;2022-11-25T04:46:12;8.77;;;5.37;;
21175;SDS011;10746;50.178;8.186;2022-11-25T04:48:41;8.30;;;5.20;;
21175;SDS011;10746;50.178;8.186;2022-11-25T04:51:08;11.77;;;5.70;;
21175;SDS011;10746;50.178;8.186;2022-11-25T04:53:34;11.20;;;6.10;;
21175;SDS011;10746;50.178;8.186;2022-11-25T04:56:01;8.83;;;5.63;;
21175;SDS011;10746;50.178;8.186;2022-11-25T04:58:30;10.80;;;6.20;;
21175;SDS011;10746;50.178;8.186;2022-11-25T05:01:14;7.80;;;5.67;;
21175;SDS011;10746;50.178;8.186;2022-11-25T05:03:41;13.47;;;6.43;;
21175;SDS011;10746;50.178;8.186;2022-11-25T05:06:08;12.50;;;6.57;;
21175;SDS011;10746;50.178;8.186;2022-11-25T05:08:35;10.80;;;6.80;;
21175;SDS011;10746;50.178;8.186;2022-11-25T05:11:02;8.83;;;5.73;;
21175;SDS011;10746;50.178;8.186;2022-11-25T05:13:30;9.70;;;5.87;;
21175;SDS011;10746;50.178;8.186;2022-11-25T05:15:57;13.43;;;6.10;;
21175;SDS011;10746;50.178;8.186;2022-11-25T05:18:24;12.33;;;6.30;;
21175;SDS011;10746;50.178;8.186;2022-11-25T05:20:51;11.30;;;6.20;;
21175;SDS011;10746;50.178;8.186;2022-11-25T05:23:18;11.37;;;5.73;;
21175;SDS011;10746;50.178;8.186;2022-11-25T05:25:45;13.63;;;6.50;;
21175;SDS011;10746;50.178;8.186;2022-11-25T05:28:11;10.03;;;6.13;;
21175;SDS011;10746;50.178;8.186;2022-11-25T05:30:39;11.57;;;5.90;;
21175;SDS011;10746;50.178;8.186;2022-11-25T05:33:06;11.80;;;6.13;;
21175;SDS011;10746;50.178;8.186;2022-11-25T05:35:33;12.03;;;5.53;;
21175;SDS011;10746;50.178;8.186;2022-11-25T05:38:00;9.90;;;5.33;;
21175;SDS011;10746;50.178;8.186;2022-11-25T05:40:28;11.00;;;5.70;;
21175;SDS011;10746;50.178;8.186;2022-11-25T05:42:58;13.43;;;6.37;;
21175;SDS011;10746;50.178;8.186;2022-11-25T05:45:25;10.97;;;6.20;;
21175;SDS011;10746;50.178;8.186;2022-11-25T05:47:53;10.47;;;6.67;;
21175;SDS011;10746;50.178;8.186;2022-11-25T05:50:20;13.27;;;7.17;;
21175;SDS011;10746;50.178;8.186;2022-11-25T05:52:47;11.07;;;6.00;;
21175;SDS011;10746;50.178;8.186;2022-11-25T05:55:14;15.33;;;6.77;;
21175;SDS011;10746;50.178;8.186;2022-11-25T05:57:40;10.93;;;6.23;;
21175;SDS011;10746;50.178;8.186;2022-11-25T06:00:07;12.90;;;6.47;;
21175;SDS011;10746;50.178;8.186;2022-11-25T06:02:35;11.43;;;6.13;;
21175;SDS011;10746;50.178;8.186;2022-11-25T06:05:03;13.73;;;6.20;;
21175;SDS011;10746;50.178;8.186;2022-11-25T06:07:30;12.50;;;6.00;;
21175;SDS011;10746;50.178;8.186;2022-11-25T06:09:57;10.73;;;6.20;;
21175;SDS011;10746;50.178;8.186;2022-11-25T06:12:24;10.40;;;6.47;;
21175;SDS011;10746;50.178;8.186;2022-11-25T06:14:50;10.27;;;5.97;;
21175;SDS011;10746;50.178;8.186;2022-11-25T06:17:17;10.30;;;5.90;;
21175;SDS011;10746;50.178;8.186;2022-11-25T06:19:45;10.27;;;6.33;;
21175;SDS011;10746;50.178;8.186;2022-11-25T06:22:13;10.37;;;6.87;;
21175;SDS011;10746;50.178;8.186;2022-11-25T06:24:40;11.50;;;5.70;;
21175;SDS011;10746;50.178;8.186;2022-11-25T06:27:07;12.03;;;6.30;;
21175;SDS011;10746;50.178;8.186;2022-11-25T06:29:34;10.87;;;5.83;;
21175;SDS011;10746;50.178;8.186;2022-11-25T06:32:00;9.67;;;5.80;;
21175;SDS011;10746;50.178;8.186;2022-11-25T06:34:27;13.30;;;5.27;;
21175;SDS011;10746;50.178;8.186;2022-11-25T06:36:54;9.90;;;4.97;;
21175;SDS011;10746;50.178;8.186;2022-11-25T06:39:22;9.13;;;5.17;;
21175;SDS011;10746;50.178;8.186;2022-11-25T06:41:49;8.67;;;4.80;;
21175;SDS011;10746;50.178;8.186;2022-11-25T06:44:15;9.37;;;4.90;;
21175;SDS011;10746;50.178;8.186;2022-11-25T06:46:42;9.20;;;5.30;;
21175;SDS011;10746;50.178;8.186;2022-11-25T06:49:09;11.43;;;5.53;;
21175;SDS011;10746;50.178;8.186;2022-11-25T06:51:36;10.63;;;5.40;;
21175;SDS011;10746;50.178;8.186;2022-11-25T06:54:02;8.23;;;4.70;;
21175;SDS011;10746;50.178;8.186;2022-11-25T06:56:31;10.50;;;5.13;;
21175;SDS011;10746;50.178;8.186;2022-11-25T06:58:57;9.50;;;4.80;;
21175;SDS011;10746;50.178;8.186;2022-11-25T07:01:25;9.00;;;4.93;;
21175;SDS011;10746;50.178;8.186;2022-11-25T07:03:54;8.97;;;5.27;;
21175;SDS011;10746;50.178;8.186;2022-11-25T07:06:21;10.93;;;5.53;;
21175;SDS011;10746;50.178;8.186;2022-11-25T07:08:48;10.33;;;5.57;;
21175;SDS011;10746;50.178;8.186;2022-11-25T07:11:16;13.47;;;5.60;;
21175;SDS011;10746;50.178;8.186;2022-11-25T07:13:46;9.13;;;5.50;;
21175;SDS011;10746;50.178;8.186;2022-11-25T07:16:13;10.63;;;5.60;;
21175;SDS011;10746;50.178;8.186;2022-11-25T07:18:41;9.90;;;6.63;;
21175;SDS011;10746;50.178;8.186;2022-11-25T07:21:09;14.13;;;6.60;;
21175;SDS011;10746;50.178;8.186;2022-11-25T07:23:37;11.63;;;5.33;;
21175;SDS011;10746;50.178;8.186;2022-11-25T07:26:05;8.23;;;5.47;;
21175;SDS011;10746;50.178;8.186;2022-11-25T07:28:33;8.73;;;5.20;;
21175;SDS011;10746;50.178;8.186;2022-11-25T07:31:06;13.03;;;5.83;;
21175;SDS011;10746;50.178;8.186;2022-11-25T07:33:34;13.30;;;6.83;;
21175;SDS011;10746;50.178;8.186;2022-11-25T07:36:02;11.10;;;5.87;;
21175;SDS011;10746;50.178;8.186;2022-11-25T07:38:30;11.13;;;6.00;;
21175;SDS011;10746;50.178;8.186;2022-11-25T07:41:02;9.27;;;5.60;;
21175;SDS011;10746;50.178;8.186;2022-11-25T07:43:29;14.43;;;6.13;;
21175;SDS011;10746;50.178;8.186;2022-11-25T07:46:07;9.30;;;5.80;;
21175;SDS011;10746;50.178;8.186;2022-11-25T07:48:35;6.83;;;4.70;;
21175;SDS011;10746;50.178;8.186;2022-11-25T07:51:02;9.20;;;5.00;;
21175;SDS011;10746;50.178;8.186;2022-11-25T07:53:28;17.90;;;8.47;;
21175;SDS011;10746;50.178;8.186;2022-11-25T07:55:58;20.47;;;10.23;;
21175;SDS011;10746;50.178;8.186;2022-11-25T07:58:25;11.17;;;5.90;;
21175;SDS011;10746;50.178;8.186;2022-11-25T08:00:52;26.40;;;11.97;;
21175;SDS011;10746;50.178;8.186;2022-11-25T08:03:20;12.27;;;6.20;;
21175;SDS011;10746;50.178;8.186;2022-11-25T08:05:47;12.83;;;5.37;;
21175;SDS011;10746;50.178;8.186;2022-11-25T08:08:14;16.97;;;9.57;;
21175;SDS011;10746;50.178;8.186;2022-11-25T08:10:41;15.23;;;9.03;;
21175;SDS011;10746;50.178;8.186;2022-11-25T08:13:07;12.83;;;8.30;;
21175;SDS011;10746;50.178;8.186;2022-11-25T08:15:34;9.37;;;4.67;;
21175;SDS011;10746;50.178;8.186;2022-11-25T08:18:01;7.37;;;4.27;;
21175;SDS011;10746;50.178;8.186;2022-11-25T08:20:29;10.03;;;4.30;;
21175;SDS011;10746;50.178;8.186;2022-11-25T08:22:56;7.23;;;3.70;;
21175;SDS011;10746;50.178;8.186;2022-11-25T08:25:23;5.83;;;3.90;;
21175;SDS011;10746;50.178;8.186;2022-11-25T08:27:50;13.23;;;5.37;;
21175;SDS011;10746;50.178;8.186;2022-11-25T08:30:17;7.47;;;3.90;;
21175;SDS011;10746;50.178;8.186;2022-11-25T08:32:45;6.97;;;3.67;;
21175;SDS011;10746;50.178;8.186;2022-11-25T08:35:12;6.23;;;3.60;;
21175;SDS011;10746;50.178;8.186;2022-11-25T08:37:40;8.73;;;4.00;;
21175;SDS011;10746;50.178;8.186;2022-11-25T08:40:08;10.10;;;4.37;;
21175;SDS011;10746;50.178;8.186;2022-11-25T08:42:36;4.77;;;3.70;;
21175;SDS011;10746;50.178;8.186;2022-11-25T08:45:03;6.30;;;3.50;;
21175;SDS011;10746;50.178;8.186;2022-11-25T08:47:32;4.53;;;3.43;;
21175;SDS011;10746;50.178;8.186;2022-11-25T08:49:59;6.43;;;3.60;;
21175;SDS011;10746;50.178;8.186;2022-11-25T08:52:25;4.53;;;3.30;;
21175;SDS011;10746;50.178;8.186;2022-11-25T08:54:54;7.07;;;3.60;;
21175;SDS011;10746;50.178;8.186;2022-11-25T08:57:21;5.83;;;3.30;;
21175;SDS011;10746;50.178;8.186;2022-11-25T08:59:48;7.70;;;3.50;;
21175;SDS011;10746;50.178;8.186;2022-11-25T09:02:15;5.90;;;3.30;;
21175;SDS011;10746;50.178;8.186;2022-11-25T09:04:42;6.67;;;3.20;;
21175;SDS011;10746;50.178;8.186;2022-11-25T09:07:09;6.23;;;3.23;;
21175;SDS011;10746;50.178;8.186;2022-11-25T09:09:36;6.50;;;3.50;;
21175;SDS011;10746;50.178;8.186;2022-11-25T09:12:04;8.97;;;3.33;;
21175;SDS011;10746;50.178;8.186;2022-11-25T09:14:31;8.50;;;4.03;;
21175;SDS011;10746;50.178;8.186;2022-11-25T09:16:58;6.13;;;3.33;;
21175;SDS011;10746;50.178;8.186;2022-11-25T09:19:26;9.53;;;3.80;;
21175;SDS011;10746;50.178;8.186;2022-11-25T09:21:53;5.13;;;3.70;;
21175;SDS011;10746;50.178;8.186;2022-11-25T09:24:19;7.03;;;3.30;;
21175;SDS011;10746;50.178;8.186;2022-11-25T09:26:46;6.63;;;3.23;;
21175;SDS011;10746;50.178;8.186;2022-11-25T09:29:14;9.57;;;3.10;;
21175;SDS011;10746;50.178;8.186;2022-11-25T09:31:41;5.47;;;3.27;;
21175;SDS011;10746;50.178;8.186;2022-11-25T09:34:08;6.43;;;2.90;;
21175;SDS011;10746;50.178;8.186;2022-11-25T09:36:35;4.30;;;3.00;;
21175;SDS011;10746;50.178;8.186;2022-11-25T09:39:02;5.57;;;2.77;;
21175;SDS011;10746;50.178;8.186;2022-11-25T09:41:33;3.97;;;2.97;;
21175;SDS011;10746;50.178;8.186;2022-11-25T09:44:33;6.87;;;2.57;;
21175;SDS011;10746;50.178;8.186;2022-11-25T09:47:26;5.70;;;2.60;;
21175;SDS011;10746;50.178;8.186;2022-11-25T09:50:02;5.57;;;2.63;;
21175;SDS011;10746;50.178;8.186;2022-11-25T09:52:39;3.40;;;2.40;;
21175;SDS011;10746;50.178;8.186;2022-11-25T09:55:15;5.97;;;2.40;;
21175;SDS011;10746;50.178;8.186;2022-11-25T09:57:49;6.23;;;2.30;;
21175;SDS011;10746;50.178;8.186;2022-11-25T10:00:23;4.87;;;2.47;;
21175;SDS011;10746;50.178;8.186;2022-11-25T10:02:57;7.37;;;2.93;;
21175;SDS011;10746;50.178;8.186;2022-11-25T10:05:28;5.17;;;2.23;;
21175;SDS011;10746;50.178;8.186;2022-11-25T10:07:58;6.33;;;2.60;;
21175;SDS011;10746;50.178;8.186;2022-11-25T10:10:35;4.23;;;2.53;;
21175;SDS011;10746;50.178;8.186;2022-11-25T10:13:07;3.73;;;2.30;;
21175;SDS011;10746;50.178;8.186;2022-11-25T10:15:44;2.50;;;1.70;;
21175;SDS011;10746;50.178;8.186;2022-11-25T10:18:16;2.10;;;1.40;;
21175;SDS011;10746;50.178;8.186;2022-11-25T10:20:46;3.27;;;1.60;;
21175;SDS011;10746;50.178;8.186;2022-11-25T10:23:17;4.77;;;1.77;;
21175;SDS011;10746;50.178;8.186;2022-11-25T10:25:48;2.10;;;1.73;;
21175;SDS011;10746;50.178;8.186;2022-11-25T10:28:19;1.60;;;1.17;;
21175;SDS011;10746;50.178;8.186;2022-11-25T10:30:51;6.03;;;1.57;;
21175;SDS011;10746;50.178;8.186;2022-11-25T10:33:24;4.37;;;1.67;;
21175;SDS011;10746;50.178;8.186;2022-11-25T10:35:54;3.07;;;1.40;;
21175;SDS011;10746;50.178;8.186;2022-11-25T10:38:25;2.40;;;1.50;;
21175;SDS011;10746;50.178;8.186;2022-11-25T10:40:55;7.70;;;2.10;;
21175;SDS011;10746;50.178;8.186;2022-11-25T10:43:23;3.77;;;1.60;;
21175;SDS011;10746;50.178;8.186;2022-11-25T10:45:52;6.33;;;1.53;;
21175;SDS011;10746;50.178;8.186;2022-11-25T10:48:32;2.30;;;1.23;;
21175;SDS011;10746;50.178;8.186;2022-11-25T10:51:14;7.60;;;1.90;;
21175;SDS011;10746;50.178;8.186;2022-11-25T10:54:11;4.97;;;1.47;;
21175;SDS011;10746;50.178;8.186;2022-11-25T10:56:50;2.90;;;1.50;;
21175;SDS011;10746;50.178;8.186;2022-11-25T10:59:21;4.20;;;1.60;;
21175;SDS011;10746;50.178;8.186;2022-11-25T11:01:52;8.10;;;1.60;;
21175;SDS011;10746;50.178;8.186;2022-11-25T11:04:31;3.33;;;1.57;;
21175;SDS011;10746;50.178;8.186;2022-11-25T11:07:05;6.10;;;2.30;;
21175;SDS011;10746;50.178;8.186;2022-11-25T11:09:34;3.30;;;1.33;;
21175;SDS011;10746;50.178;8.186;2022-11-25T11:12:07;6.53;;;1.70;;
21175;SDS011;10746;50.178;8.186;2022-11-25T11:14:39;3.87;;;1.77;;
21175;SDS011;10746;50.178;8.186;2022-11-25T11:17:28;3.83;;;1.93;;
21175;SDS011;10746;50.178;8.186;2022-11-25T11:20:03;2.95;;;1.33;;
21175;SDS011;10746;50.178;8.186;2022-11-25T11:22:44;7.82;;;2.15;;
21175;SDS011;10746;50.178;8.186;2022-11-25T11:25:22;3.72;;;1.50;;
21175;SDS011;10746;50.178;8.186;2022-11-25T11:27:57;6.07;;;2.00;;
21175;SDS011;10746;50.178;8.186;2022-11-25T11:30:25;5.72;;;2.00;;
21175;SDS011;10746;50.178;8.186;2022-11-25T11:32:54;6.30;;;1.90;;
21175;SDS011;10746;50.178;8.186;2022-11-25T11:35:40;2.63;;;1.45;;
21175;SDS011;10746;50.178;8.186;2022-11-25T11:38:18;5.90;;;2.00;;
21175;SDS011;10746;50.178;8.186;2022-11-25T11:40:57;4.25;;;1.88;;
21175;SDS011;10746;50.178;8.186;2022-11-25T11:43:37;5.18;;;1.98;;
21175;SDS011;10746;50.178;8.186;2022-11-25T11:46:24;2.57;;;1.70;;
21175;SDS011;10746;50.178;8.186;2022-11-25T11:49:01;8.73;;;2.03;;
21175;SDS011;10746;50.178;8.186;2022-11-25T11:51:42;4.90;;;1.77;;
21175;SDS011;10746;50.178;8.186;2022-11-25T11:54:19;5.83;;;2.00;;
21175;SDS011;10746;50.178;8.186;2022-11-25T11:56:53;3.90;;;1.83;;
21175;SDS011;10746;50.178;8.186;2022-11-25T12:02:19;8.63;;;1.87;;
21175;SDS011;10746;50.178;8.186;2022-11-25T12:04:52;5.37;;;1.90;;
21175;SDS011;10746;50.178;8.186;2022-11-25T12:07:28;3.13;;;1.47;;
21175;SDS011;10746;50.178;8.186;2022-11-25T12:10:00;4.40;;;1.80;;
21175;SDS011;10746;50.178;8.186;2022-11-25T12:12:31;5.03;;;1.80;;
21175;SDS011;10746;50.178;8.186;2022-11-25T12:15:04;5.77;;;1.83;;
21175;SDS011;10746;50.178;8.186;2022-11-25T12:17:39;9.33;;;1.57;;
21175;SDS011;10746;50.178;8.186;2022-11-25T12:20:13;6.47;;;2.10;;
21175;SDS011;10746;50.178;8.186;2022-11-25T12:22:45;2.27;;;1.57;;
21175;SDS011;10746;50.178;8.186;2022-11-25T12:25:18;6.83;;;2.03;;
21175;SDS011;10746;50.178;8.186;2022-11-25T12:27:49;2.93;;;1.50;;
21175;SDS011;10746;50.178;8.186;2022-11-25T12:30:22;2.88;;;1.63;;
21175;SDS011;10746;50.178;8.186;2022-11-25T12:32:56;2.97;;;1.47;;
21175;SDS011;10746;50.178;8.186;2022-11-25T12:35:37;2.57;;;1.60;;
21175;SDS011;10746;50.178;8.186;2022-11-25T12:38:16;5.30;;;1.63;;
21175;SDS011;10746;50.178;8.186;2022-11-25T12:40:48;4.33;;;1.80;;
21175;SDS011;10746;50.178;8.186;2022-11-25T12:43:26;9.57;;;1.90;;
21175;SDS011;10746;50.178;8.186;2022-11-25T12:46:04;4.83;;;1.70;;
21175;SDS011;10746;50.178;8.186;2022-11-25T12:48:38;5.33;;;2.60;;
21175;SDS011;10746;50.178;8.186;2022-11-25T12:51:09;5.77;;;2.13;;
21175;SDS011;10746;50.178;8.186;2022-11-25T12:53:45;4.20;;;2.13;;
21175;SDS011;10746;50.178;8.186;2022-11-25T12:56:20;11.53;;;2.03;;
21175;SDS011;10746;50.178;8.186;2022-11-25T12:58:52;6.30;;;2.15;;
21175;SDS011;10746;50.178;8.186;2022-11-25T13:01:50;4.88;;;1.80;;
21175;SDS011;10746;50.178;8.186;2022-11-25T13:04:34;9.68;;;1.80;;
21175;SDS011;10746;50.178;8.186;2022-11-25T13:07:28;4.53;;;1.75;;
21175;SDS011;10746;50.178;8.186;2022-11-25T13:10:09;4.32;;;1.90;;
21175;SDS011;10746;50.178;8.186;2022-11-25T13:13:06;9.07;;;2.70;;
21175;SDS011;10746;50.178;8.186;2022-11-25T13:15:45;6.93;;;2.03;;
21175;SDS011;10746;50.178;8.186;2022-11-25T13:18:14;4.50;;;1.92;;
21175;SDS011;10746;50.178;8.186;2022-11-25T13:20:44;8.50;;;2.83;;
21175;SDS011;10746;50.178;8.186;2022-11-25T13:23:20;9.98;;;2.55;;
21175;SDS011;10746;50.178;8.186;2022-11-25T13:26:31;3.92;;;1.83;;
21175;SDS011;10746;50.178;8.186;2022-11-25T13:29:00;7.53;;;2.20;;
21175;SDS011;10746;50.178;8.186;2022-11-25T13:31:32;6.55;;;1.98;;
21175;SDS011;10746;50.178;8.186;2022-11-25T13:34:23;3.63;;;1.80;;
21175;SDS011;10746;50.178;8.186;2022-11-25T13:36:53;8.00;;;2.20;;
21175;SDS011;10746;50.178;8.186;2022-11-25T13:39:28;9.03;;;2.27;;
21175;SDS011;10746;50.178;8.186;2022-11-25T13:41:59;8.88;;;2.30;;
21175;SDS011;10746;50.178;8.186;2022-11-25T13:44:29;8.00;;;1.88;;
21175;SDS011;10746;50.178;8.186;2022-11-25T13:46:59;4.60;;;1.80;;
21175;SDS011;10746;50.178;8.186;2022-11-25T13:49:49;6.33;;;2.20;;
21175;SDS011;10746;50.178;8.186;2022-11-25T13:55:07;4.83;;;1.53;;
21175;SDS011;10746;50.178;8.186;2022-11-25T13:57:58;8.37;;;3.30;;
21175;SDS011;10746;50.178;8.186;2022-11-25T14:00:48;6.00;;;2.00;;
21175;SDS011;10746;50.178;8.186;2022-11-25T14:03:45;6.90;;;1.87;;
21175;SDS011;10746;50.178;8.186;2022-11-25T14:06:33;3.53;;;1.53;;
21175;SDS011;10746;50.178;8.186;2022-11-25T14:09:17;6.40;;;2.80;;
21175;SDS011;10746;50.178;8.186;2022-11-25T14:12:02;4.37;;;1.97;;
21175;SDS011;10746;50.178;8.186;2022-11-25T14:15:07;8.37;;;2.10;;
21175;SDS011;10746;50.178;8.186;2022-11-25T14:18:05;5.10;;;1.80;;
21175;SDS011;10746;50.178;8.186;2022-11-25T14:20:53;3.33;;;1.67;;
21175;SDS011;10746;50.178;8.186;2022-11-25T14:23:40;5.97;;;2.03;;
21175;SDS011;10746;50.178;8.186;2022-11-25T14:26:17;5.83;;;1.80;;
21175;SDS011;10746;50.178;8.186;2022-11-25T14:28:51;9.07;;;2.00;;
21175;SDS011;10746;50.178;8.186;2022-11-25T14:31:26;10.13;;;2.30;;
21175;SDS011;10746;50.178;8.186;2022-11-25T14:33:59;11.33;;;4.60;;
21175;SDS011;10746;50.178;8.186;2022-11-25T14:36:30;8.63;;;2.30;;
21175;SDS011;10746;50.178;8.186;2022-11-25T14:39:01;7.07;;;2.33;;
21175;SDS011;10746;50.178;8.186;2022-11-25T14:41:31;9.53;;;2.27;;
21175;SDS011;10746;50.178;8.186;2022-11-25T14:44:02;12.43;;;3.30;;
21175;SDS011;10746;50.178;8.186;2022-11-25T14:46:33;4.67;;;1.90;;
21175;SDS011;10746;50.178;8.186;2022-11-25T14:49:00;8.03;;;2.07;;
21175;SDS011;10746;50.178;8.186;2022-11-25T14:51:32;11.37;;;2.50;;
21175;SDS011;10746;50.178;8.186;2022-11-25T14:54:00;10.20;;;2.00;;
21175;SDS011;10746;50.178;8.186;2022-11-25T14:56:30;19.17;;;8.17;;
21175;SDS011;10746;50.178;8.186;2022-11-25T14:58:59;50.30;;;19.87;;
21175;SDS011;10746;50.178;8.186;2022-11-25T15:01:26;10.57;;;3.83;;
21175;SDS011;10746;50.178;8.186;2022-11-25T15:04:02;37.03;;;15.37;;
21175;SDS011;10746;50.178;8.186;2022-11-25T15:06:34;6.57;;;3.47;;
21175;SDS011;10746;50.178;8.186;2022-11-25T15:09:03;9.37;;;3.00;;
21175;SDS011;10746;50.178;8.186;2022-11-25T15:11:43;22.60;;;11.97;;